createdAt,value
2023-04-27T00:00:11.599Z,148931.41
2023-04-27T00:02:39.808Z,148889.03
2023-04-27T00:05:08.624Z,148845.41
2023-04-27T00:07:38.731Z,148890.31
2023-04-27T00:10:08.444Z,148845.41
2023-04-27T00:12:36.316Z,148854.38
2023-04-27T00:15:04.656Z,148799.22
2023-04-27T00:17:32.824Z,148819.75
2023-04-27T00:20:01.672Z,148768.44
2023-04-27T00:22:29.873Z,148747.91
2023-04-27T00:24:59.166Z,148779.94
2023-04-27T00:27:27.154Z,148930.13
2023-04-27T00:29:55.844Z,148948.06
2023-04-27T00:32:23.954Z,149039.25
2023-04-27T00:34:51.926Z,149039.25
2023-04-27T00:37:19.938Z,149115.00
2023-04-27T00:39:47.988Z,149115.00
2023-04-27T00:42:19.696Z,149183.09
2023-04-27T00:44:48.131Z,149243.47
2023-04-27T00:47:17.381Z,149225.47
2023-04-27T00:49:45.788Z,149199.81
2023-04-27T00:52:13.971Z,149228.03
2023-04-27T00:54:41.839Z,149198.53
2023-04-27T00:57:10.066Z,149222.91
2023-04-27T00:59:40.434Z,149222.91
2023-04-27T01:02:08.471Z,149240.91
2023-04-27T01:04:37.010Z,149215.19
2023-04-27T01:07:05.213Z,149210.09
2023-04-27T01:09:33.329Z,149216.47
2023-04-27T01:12:01.344Z,149166.38
2023-04-27T01:14:30.428Z,149130.41
2023-04-27T01:16:59.980Z,149163.78
2023-04-27T01:19:28.954Z,149176.66
2023-04-27T01:21:57.148Z,149192.09
2023-04-27T01:24:26.777Z,149156.13
2023-04-27T01:26:54.878Z,149143.28
2023-04-27T01:29:22.763Z,149086.75
2023-04-27T01:31:50.865Z,149068.75
2023-04-27T01:34:19.894Z,149147.13
2023-04-27T01:36:47.845Z,149081.63
2023-04-27T01:39:16.433Z,149050.75
2023-04-27T01:41:45.782Z,149068.75
2023-04-27T01:44:14.794Z,149145.84
2023-04-27T01:46:43.704Z,149066.19
2023-04-27T01:49:11.938Z,149027.69
2023-04-27T01:51:40.006Z,148948.06
2023-04-27T01:54:08.060Z,148945.50
2023-04-27T01:56:36.280Z,148962.19
2023-04-27T01:59:05.751Z,148945.50
2023-04-27T02:01:33.739Z,148833.84
2023-04-27T02:04:03.348Z,148804.34
2023-04-27T02:06:31.416Z,148829.97
2023-04-27T02:08:59.704Z,148898.00
2023-04-27T02:11:29.196Z,148913.41
2023-04-27T02:13:57.086Z,148933.97
2023-04-27T02:16:26.453Z,149000.69
2023-04-27T02:18:57.701Z,148981.47
2023-04-27T02:21:25.759Z,149025.13
2023-04-27T02:23:53.681Z,148985.31
2023-04-27T02:26:22.632Z,149005.84
2023-04-27T02:28:51.086Z,149017.41
2023-04-27T02:31:19.543Z,149073.91
2023-04-27T02:33:49.828Z,149027.69
2023-04-27T02:36:17.706Z,149027.69
2023-04-27T02:38:45.692Z,149017.41
2023-04-27T02:41:13.711Z,149044.38
2023-04-27T02:43:41.886Z,149050.75
2023-04-27T02:46:09.915Z,149023.81
2023-04-27T02:48:37.923Z,149004.56
2023-04-27T02:51:07.758Z,148967.34
2023-04-27T02:53:38.103Z,148892.88
2023-04-27T02:56:07.517Z,148878.78
2023-04-27T02:58:35.712Z,148869.78
2023-04-27T03:01:03.965Z,148827.47
2023-04-27T03:03:32.449Z,148840.25
2023-04-27T03:06:00.517Z,148873.66
2023-04-27T03:08:29.711Z,148873.66
2023-04-27T03:10:59.821Z,148895.44
2023-04-27T03:13:28.095Z,148872.38
2023-04-27T03:15:56.181Z,148778.66
2023-04-27T03:18:24.221Z,148809.47
2023-04-27T03:20:52.325Z,148727.34
2023-04-27T03:23:20.286Z,148644.03
2023-04-27T03:25:49.700Z,148570.94
2023-04-27T03:28:17.689Z,148553.03
2023-04-27T03:30:46.512Z,148555.53
2023-04-27T03:33:14.690Z,148656.88
2023-04-27T03:35:44.553Z,148731.22
2023-04-27T03:38:12.438Z,148732.50
2023-04-27T03:40:40.304Z,148751.75
2023-04-27T03:43:09.537Z,148832.56
2023-04-27T03:45:37.764Z,148838.97
2023-04-27T03:48:07.066Z,148858.25
2023-04-27T03:50:35.162Z,148783.81
2023-04-27T03:53:03.273Z,148690.19
2023-04-27T03:55:31.513Z,148658.16
2023-04-27T03:57:59.688Z,148590.19
2023-04-27T04:00:29.118Z,148560.66
2023-04-27T04:02:57.117Z,148565.81
2023-04-27T04:05:26.032Z,148540.19
2023-04-27T04:07:55.310Z,148550.47
2023-04-27T04:10:23.599Z,148601.72
2023-04-27T04:12:51.848Z,148740.19
2023-04-27T04:15:20.448Z,148823.63
2023-04-27T04:17:49.765Z,148771.00
2023-04-27T04:20:18.024Z,148732.50
2023-04-27T04:22:45.976Z,148744.06
2023-04-27T04:25:14.188Z,148703.03
2023-04-27T04:27:42.589Z,148659.44
2023-04-27T04:30:12.724Z,148705.59
2023-04-27T04:32:43.582Z,148803.06
2023-04-27T04:35:13.295Z,148821.03
2023-04-27T04:37:44.609Z,148855.66
2023-04-27T04:40:21.501Z,148868.50
2023-04-27T04:43:04.912Z,148868.50
2023-04-27T04:45:34.127Z,148930.13
2023-04-27T04:48:08.922Z,148954.47
2023-04-27T04:50:42.870Z,148867.22
2023-04-27T04:53:11.554Z,148874.94
2023-04-27T04:55:39.521Z,148863.38
2023-04-27T04:58:07.655Z,148881.34
2023-04-27T05:00:36.941Z,148909.56
2023-04-27T05:03:07.341Z,148912.13
2023-04-27T05:05:35.802Z,148883.88
2023-04-27T05:08:05.570Z,148874.94
2023-04-27T05:10:34.029Z,148868.50
2023-04-27T05:13:01.969Z,148901.88
2023-04-27T05:15:29.909Z,148958.34
2023-04-27T05:17:57.981Z,149077.75
2023-04-27T05:20:26.016Z,149109.84
2023-04-27T05:22:54.281Z,149175.38
2023-04-27T05:25:23.708Z,149265.34
2023-04-27T05:27:52.243Z,149302.59
2023-04-27T05:30:20.123Z,149324.44
2023-04-27T05:32:48.206Z,149352.72
2023-04-27T05:35:16.377Z,149369.47
2023-04-27T05:37:46.976Z,149351.44
2023-04-27T05:40:16.451Z,149366.88
2023-04-27T05:42:47.357Z,149368.16
2023-04-27T05:45:15.610Z,149368.16
2023-04-27T05:47:43.976Z,149374.59
2023-04-27T05:50:12.298Z,149374.59
2023-04-27T05:52:40.968Z,149372.03
2023-04-27T05:55:10.748Z,149405.44
2023-04-27T05:57:40.486Z,149411.88
2023-04-27T06:00:12.784Z,149467.16
2023-04-27T06:02:41.016Z,149666.56
2023-04-27T06:05:11.385Z,149894.44
2023-04-27T06:07:39.723Z,150103.16
2023-04-27T06:10:09.339Z,150234.69
2023-04-27T06:12:37.246Z,150371.38
2023-04-27T06:15:08.568Z,150572.78
2023-04-27T06:17:38.603Z,150636.06
2023-04-27T06:20:08.165Z,150805.25
2023-04-27T06:22:36.902Z,150953.88
2023-04-27T06:25:07.862Z,151001.69
2023-04-27T06:27:36.337Z,151159.44
2023-04-27T06:30:05.096Z,151185.41
2023-04-27T06:32:33.107Z,151273.34
2023-04-27T06:35:03.621Z,151233.25
2023-04-27T06:37:37.748Z,151305.69
2023-04-27T06:40:06.793Z,151376.88
2023-04-27T06:42:35.069Z,151388.56
2023-04-27T06:45:03.473Z,151433.84
2023-04-27T06:47:31.544Z,151462.34
2023-04-27T06:50:00.005Z,151410.56
2023-04-27T06:52:29.544Z,151542.63
2023-04-27T06:54:58.607Z,151501.19
2023-04-27T06:57:26.900Z,151600.91
2023-04-27T06:59:57.125Z,151879.59
2023-04-27T07:02:29.841Z,151757.72
2023-04-27T07:04:58.003Z,151769.41
2023-04-27T07:07:26.132Z,151897.75
2023-04-27T07:09:58.046Z,152024.81
2023-04-27T07:12:26.398Z,152013.19
2023-04-27T07:14:54.515Z,117642.84
2023-04-27T07:17:22.619Z,-20149.28
2023-04-27T07:19:52.626Z,-20137.09
2023-04-27T07:22:20.833Z,-20152.91
2023-04-27T07:24:48.758Z,-20142.84
2023-04-27T07:27:18.377Z,-20155.44
2023-04-27T07:29:46.277Z,-20146.63
2023-04-27T07:32:14.988Z,-20161.16
2023-04-27T07:34:52.532Z,-20167.19
2023-04-27T07:37:21.279Z,-20179.75
2023-04-27T07:39:50.128Z,-20168.28
2023-04-27T07:42:19.596Z,-20180.03
2023-04-27T07:44:47.658Z,-20198.19
2023-04-27T07:47:15.867Z,-20183.69
2023-04-27T07:49:46.495Z,-17543.13
2023-04-27T07:52:14.683Z,-11961.50
2023-04-27T07:54:44.688Z,-12946.53
2023-04-27T07:57:14.092Z,-13935.06
2023-04-27T07:59:45.906Z,9861.53
2023-04-27T08:02:19.093Z,10855.13
2023-04-27T08:04:48.784Z,3230.44
2023-04-27T08:07:19.459Z,9860.34
2023-04-27T08:09:52.442Z,23841.78
2023-04-27T08:12:21.489Z,45942.97
2023-04-27T08:14:51.891Z,15508.16
2023-04-27T08:17:21.587Z,68490.13
2023-04-27T08:19:52.612Z,94984.13
2023-04-27T08:22:21.666Z,65463.50
2023-04-27T08:24:49.600Z,43936.75
2023-04-27T08:27:19.983Z,109083.78
2023-04-27T08:30:00.386Z,92705.16
2023-04-27T08:32:35.437Z,103245.34
2023-04-27T08:35:05.712Z,57321.78
2023-04-27T08:37:33.846Z,65191.09
2023-04-27T08:40:01.724Z,111938.75
2023-04-27T08:42:30.713Z,153229.72
2023-04-27T08:44:58.792Z,153147.69
2023-04-27T08:47:41.205Z,153190.63
2023-04-27T08:50:13.172Z,153043.56
2023-04-27T08:52:41.644Z,152671.56
2023-04-27T08:55:13.324Z,152672.88
2023-04-27T08:57:43.056Z,152437.69
2023-04-27T09:00:15.725Z,152649.44
2023-04-27T09:03:04.396Z,152587.06
2023-04-27T09:06:03.764Z,152635.13
2023-04-27T09:08:50.810Z,152715.81
2023-04-27T09:11:31.646Z,152929.03
2023-04-27T09:14:02.487Z,152949.88
2023-04-27T09:16:32.816Z,153245.31
2023-04-27T09:19:08.802Z,153263.53
2023-04-27T09:21:40.461Z,153184.16
2023-04-27T09:24:13.584Z,153189.31
2023-04-27T09:26:42.772Z,153267.44
2023-04-27T09:29:12.574Z,153132.06
2023-04-27T09:31:43.069Z,153108.66
2023-04-27T09:34:11.361Z,153056.59
2023-04-27T09:36:56.240Z,153007.13
2023-04-27T09:39:36.520Z,153129.50
2023-04-27T09:42:05.603Z,153203.66
2023-04-27T09:44:34.575Z,153608.88
2023-04-27T09:47:05.748Z,153160.72
2023-04-27T09:49:36.186Z,153203.66
2023-04-27T09:52:06.331Z,153276.56
2023-04-27T09:54:40.223Z,153306.56
2023-04-27T09:57:23.498Z,153145.06
2023-04-27T10:00:23.766Z,153254.41
2023-04-27T10:03:07.881Z,153370.38
2023-04-27T10:06:20.044Z,153432.91
2023-04-27T10:08:53.061Z,152654.66
2023-04-27T10:11:21.652Z,152684.56
2023-04-27T10:13:54.857Z,153126.88
2023-04-27T10:16:23.378Z,153327.41
2023-04-27T10:18:56.806Z,153517.63
2023-04-27T10:21:32.963Z,153236.22
2023-04-27T10:24:14.963Z,152916.03
2023-04-27T10:26:48.555Z,152822.41
2023-04-27T10:29:18.532Z,152414.28
2023-04-27T10:31:49.084Z,152340.25
2023-04-27T10:34:33.134Z,152318.16
2023-04-27T10:37:06.757Z,152372.69
2023-04-27T10:39:47.609Z,152684.56
2023-04-27T10:42:28.449Z,152968.03
2023-04-27T10:44:58.846Z,153246.59
2023-04-27T10:47:41.436Z,153303.94
2023-04-27T10:50:13.404Z,152774.31
2023-04-27T10:52:46.282Z,152806.78
2023-04-27T10:55:18.830Z,152455.88
2023-04-27T10:57:50.136Z,152476.63
2023-04-27T11:00:25.988Z,152783.41
2023-04-27T11:02:56.195Z,152506.53
2023-04-27T11:05:30.574Z,152762.59
2023-04-27T11:08:13.009Z,152809.38
2023-04-27T11:10:45.520Z,152918.63
2023-04-27T11:13:15.898Z,152973.25
2023-04-27T11:15:50.230Z,153027.94
2023-04-27T11:18:19.610Z,153191.94
2023-04-27T11:20:56.615Z,153100.84
2023-04-27T11:23:26.775Z,153185.47
2023-04-27T11:25:56.685Z,153257.03
2023-04-27T11:28:26.079Z,153267.44
2023-04-27T11:30:59.301Z,153305.25
2023-04-27T11:33:28.640Z,153207.56
2023-04-27T11:35:56.788Z,153061.81
2023-04-27T11:38:25.027Z,152910.81
2023-04-27T11:41:10.865Z,152844.53
2023-04-27T11:43:44.733Z,152746.97
2023-04-27T11:46:13.408Z,152663.75
2023-04-27T11:48:41.584Z,152693.63
2023-04-27T11:51:11.986Z,152775.59
2023-04-27T11:53:42.652Z,152610.47
2023-04-27T11:56:12.100Z,152642.94
2023-04-27T11:58:41.390Z,152536.41
2023-04-27T12:01:13.486Z,152552.00
2023-04-27T12:03:42.205Z,152601.38
2023-04-27T12:06:22.034Z,152453.28
2023-04-27T12:08:59.164Z,152566.31
2023-04-27T12:11:29.490Z,152510.44
2023-04-27T12:13:59.270Z,152480.53
2023-04-27T12:16:27.657Z,152387.00
2023-04-27T12:18:56.239Z,152515.66
2023-04-27T12:21:24.497Z,152527.28
2023-04-27T12:23:52.813Z,152707.94
2023-04-27T12:26:21.685Z,152845.81
2023-04-27T12:28:51.174Z,153083.91
2023-04-27T12:31:26.790Z,153210.16
2023-04-27T12:33:55.919Z,153332.63
2023-04-27T12:36:23.897Z,153395.16
2023-04-27T12:38:51.892Z,153158.09
2023-04-27T12:41:19.903Z,153340.44
2023-04-27T12:43:50.696Z,153554.13
2023-04-27T12:46:20.818Z,153681.88
2023-04-27T12:48:48.899Z,153821.41
2023-04-27T12:51:18.029Z,153671.44
2023-04-27T12:53:48.676Z,153247.91
2023-04-27T12:56:17.681Z,152763.88
2023-04-27T12:58:46.371Z,152778.22
2023-04-27T13:01:15.685Z,152991.50
2023-04-27T13:03:46.230Z,153008.41
2023-04-27T13:06:14.832Z,152935.56
2023-04-27T13:08:42.956Z,152746.97
2023-04-27T13:11:13.004Z,152836.72
2023-04-27T13:13:42.107Z,152645.53
2023-04-27T13:16:12.248Z,152624.78
2023-04-27T13:18:49.428Z,152587.06
2023-04-27T13:21:20.393Z,152440.28
2023-04-27T13:23:54.819Z,152663.75
2023-04-27T13:26:29.594Z,152714.44
2023-04-27T13:29:05.546Z,152588.38
2023-04-27T13:31:36.018Z,71213.88
2023-04-27T13:34:35.974Z,28516.94
2023-04-27T13:37:05.534Z,23178.75
2023-04-27T13:39:34.129Z,32827.94
2023-04-27T13:42:10.157Z,47246.94
2023-04-27T13:44:40.146Z,33181.91
2023-04-27T13:47:10.206Z,48311.84
2023-04-27T13:49:39.601Z,46358.31
2023-04-27T13:52:08.048Z,59469.50
2023-04-27T13:54:40.243Z,71050.28
2023-04-27T13:57:09.406Z,92199.16
2023-04-27T13:59:37.522Z,105855.16
2023-04-27T14:02:06.518Z,84327.03
2023-04-27T14:04:34.909Z,144438.94
2023-04-27T14:07:04.553Z,153316.97
2023-04-27T14:09:33.343Z,153145.06
2023-04-27T14:12:02.792Z,153438.13
2023-04-27T14:14:30.764Z,153392.53
2023-04-27T14:16:59.010Z,153146.38
2023-04-27T14:19:28.777Z,152746.97
2023-04-27T14:21:57.571Z,153031.84
2023-04-27T14:24:27.980Z,153033.16
2023-04-27T14:26:57.063Z,148622.75
2023-04-27T14:29:25.790Z,152986.28
2023-04-27T14:31:55.969Z,153158.09
2023-04-27T14:34:23.978Z,153436.81
2023-04-27T14:36:55.345Z,153319.59
2023-04-27T14:39:23.420Z,153224.50
2023-04-27T14:41:53.762Z,153094.31
2023-04-27T14:44:25.248Z,153102.13
2023-04-27T14:46:53.503Z,152991.50
2023-04-27T14:49:22.045Z,152949.88
2023-04-27T14:51:50.443Z,153117.78
2023-04-27T14:54:24.391Z,153194.53
2023-04-27T14:56:58.624Z,152955.09
2023-04-27T14:59:26.823Z,152917.31
2023-04-27T15:01:57.819Z,153077.38
2023-04-27T15:04:26.666Z,153065.72
2023-04-27T15:06:55.443Z,152945.97
2023-04-27T15:09:24.668Z,152905.66
2023-04-27T15:11:56.275Z,152757.38
2023-04-27T15:14:27.457Z,152893.94
2023-04-27T15:16:55.235Z,152801.59
2023-04-27T15:19:31.989Z,152932.94
2023-04-27T15:21:59.813Z,152745.69
2023-04-27T15:24:27.712Z,152540.31
2023-04-27T15:26:59.518Z,149446.56
2023-04-27T15:29:28.250Z,86700.63
2023-04-27T15:31:57.520Z,79571.72
2023-04-27T15:34:26.094Z,41506.56
2023-04-27T15:36:54.346Z,36432.75
2023-04-27T15:39:22.528Z,31778.22
2023-04-27T15:41:50.828Z,24115.63
2023-04-27T15:44:21.580Z,25431.16
2023-04-27T15:46:49.559Z,12151.69
2023-04-27T15:49:17.592Z,19438.75
2023-04-27T15:51:46.717Z,13466.53
2023-04-27T15:54:14.896Z,16443.03
2023-04-27T15:56:42.914Z,5854.66
2023-04-27T15:59:12.236Z,7177.03
2023-04-27T16:01:43.659Z,12466.59
2023-04-27T16:04:11.699Z,11139.44
2023-04-27T16:06:42.935Z,12132.94
2023-04-27T16:09:11.687Z,9154.00
2023-04-27T16:11:47.313Z,12459.00
2023-04-27T16:14:15.656Z,2881.09
2023-04-27T16:16:51.418Z,-86.78
2023-04-27T16:19:19.818Z,1232.47
2023-04-27T16:21:51.529Z,8494.50
2023-04-27T16:24:20.448Z,9818.66
2023-04-27T16:26:49.190Z,9820.09
2023-04-27T16:29:21.598Z,9490.47
2023-04-27T16:31:54.769Z,1233.22
2023-04-27T16:34:23.617Z,7507.44
2023-04-27T16:36:52.275Z,11474.00
2023-04-27T16:39:20.254Z,13458.53
2023-04-27T16:41:48.925Z,8830.69
2023-04-27T16:44:18.286Z,14123.91
2023-04-27T16:46:47.532Z,9823.25
2023-04-27T16:49:17.588Z,5856.75
2023-04-27T16:51:46.157Z,244.59
2023-04-27T16:54:16.588Z,4860.78
2023-04-27T16:56:45.937Z,7837.97
2023-04-27T16:59:15.417Z,4202.19
2023-04-27T17:01:44.236Z,9155.31
2023-04-27T17:04:16.892Z,6842.53
2023-04-27T17:06:49.965Z,5850.38
2023-04-27T17:09:24.547Z,2880.81
2023-04-27T17:11:52.400Z,1560.63
2023-04-27T17:14:22.954Z,-1734.47
2023-04-27T17:16:52.157Z,902.50
2023-04-27T17:19:20.308Z,2220.06
2023-04-27T17:21:51.817Z,-3710.03
2023-04-27T17:24:20.256Z,-6999.09
2023-04-27T17:26:48.470Z,-13565.91
2023-04-27T17:29:19.281Z,-16515.69
2023-04-27T17:31:52.052Z,-20113.72
2023-04-27T17:34:19.956Z,-20110.50
2023-04-27T17:37:34.668Z,-20105.03
2023-04-27T17:40:16.607Z,-20106.72
2023-04-27T17:43:00.310Z,-20101.09
2023-04-27T17:45:52.559Z,-20101.81
2023-04-27T17:48:25.427Z,-20098.88
2023-04-27T17:50:54.654Z,-20097.88
2023-04-27T17:53:22.735Z,-20097.19
2023-04-27T17:55:58.772Z,-20094.38
2023-04-27T17:58:35.280Z,-20091.16
2023-04-27T18:01:05.000Z,-20090.31
2023-04-27T18:03:35.645Z,-20088.63
2023-04-27T18:06:08.127Z,-20083.56
2023-04-27T18:08:36.634Z,-20084.56
2023-04-27T18:11:12.012Z,-20082.59
2023-04-27T18:13:40.670Z,-20080.78
2023-04-27T18:16:09.790Z,-20078.66
2023-04-27T18:18:39.234Z,-20078.53
2023-04-27T18:21:10.598Z,-20075.88
2023-04-27T18:23:47.246Z,-20073.75
2023-04-27T18:26:18.118Z,-20070.97
2023-04-27T18:28:47.892Z,-20069.97
2023-04-27T18:31:23.727Z,-20069.69
2023-04-27T18:34:00.970Z,-20067.59
2023-04-27T18:36:30.257Z,-20064.78
2023-04-27T18:38:59.685Z,-16025.81
2023-04-27T18:41:33.296Z,53367.00
2023-04-27T18:44:09.854Z,107272.06
2023-04-27T18:46:49.871Z,129675.94
2023-04-27T18:49:18.288Z,140936.03
2023-04-27T18:51:48.251Z,147430.97
2023-04-27T18:54:19.283Z,150538.28
2023-04-27T18:56:53.859Z,151185.41
2023-04-27T18:59:24.841Z,151190.56
2023-04-27T19:01:52.934Z,151184.09
2023-04-27T19:04:22.589Z,151185.41
2023-04-27T19:06:59.719Z,151141.31
2023-04-27T19:09:28.158Z,151111.59
2023-04-27T19:12:03.401Z,151120.66
2023-04-27T19:14:32.157Z,151105.13
2023-04-27T19:17:02.830Z,151070.22
2023-04-27T19:19:32.356Z,151096.06
2023-04-27T19:22:03.791Z,151092.19
2023-04-27T19:24:37.788Z,151076.69
2023-04-27T19:27:09.169Z,151072.81
2023-04-27T19:29:56.753Z,151068.94
2023-04-27T19:32:27.209Z,151071.53
2023-04-27T19:34:56.071Z,151072.81
2023-04-27T19:37:25.234Z,151054.69
2023-04-27T19:39:55.772Z,151045.63
2023-04-27T19:42:26.263Z,151054.69
2023-04-27T19:44:55.806Z,151045.63
2023-04-27T19:47:24.724Z,151040.47
2023-04-27T19:49:53.725Z,151039.16
2023-04-27T19:52:21.693Z,151059.88
2023-04-27T19:54:52.681Z,151024.97
2023-04-27T19:57:21.786Z,151019.81
2023-04-27T19:59:53.014Z,151006.88
2023-04-27T20:02:21.583Z,151004.28
2023-04-27T20:04:50.629Z,150991.34
2023-04-27T20:07:25.016Z,150996.50
2023-04-27T20:09:53.903Z,150975.81
2023-04-27T20:12:40.877Z,150979.69
2023-04-27T20:15:13.326Z,150999.09
2023-04-27T20:17:42.910Z,150970.69
2023-04-27T20:20:12.059Z,151004.28
2023-04-27T20:22:48.145Z,150997.81
2023-04-27T20:25:16.425Z,150988.75
2023-04-27T20:27:46.870Z,150968.09
2023-04-27T20:30:16.437Z,150971.94
2023-04-27T20:32:46.555Z,150973.22
2023-04-27T20:35:14.877Z,150966.81
2023-04-27T20:37:45.255Z,150952.56
2023-04-27T20:40:18.265Z,150975.81
2023-04-27T20:42:49.540Z,150979.69
2023-04-27T20:45:19.771Z,150964.22
2023-04-27T20:47:47.859Z,150979.69
2023-04-27T20:50:15.950Z,150966.81
2023-04-27T20:52:44.224Z,150970.69
2023-04-27T20:55:13.309Z,150983.56
2023-04-27T20:57:44.616Z,150960.34
2023-04-27T21:00:15.385Z,150951.28
2023-04-27T21:02:44.911Z,150955.16
2023-04-27T21:05:13.006Z,150966.81
2023-04-27T21:07:44.154Z,150942.22
2023-04-27T21:10:17.973Z,150949.97
2023-04-27T21:12:46.076Z,150935.75
2023-04-27T21:15:15.110Z,150939.63
2023-04-27T21:17:54.584Z,150921.53
2023-04-27T21:20:28.450Z,150937.06
2023-04-27T21:22:58.860Z,150916.34
2023-04-27T21:25:26.872Z,150911.22
2023-04-27T21:27:57.554Z,150881.47
2023-04-27T21:30:26.176Z,150881.47
2023-04-27T21:32:55.499Z,150882.78
2023-04-27T21:35:23.721Z,150869.84
2023-04-27T21:37:51.608Z,150854.34
2023-04-27T21:40:20.951Z,150807.81
2023-04-27T21:42:51.303Z,150834.97
2023-04-27T21:45:23.348Z,150818.16
2023-04-27T21:47:51.614Z,150797.50
2023-04-27T21:50:24.581Z,150798.81
2023-04-27T21:52:54.434Z,150785.88
2023-04-27T21:55:23.081Z,150779.41
2023-04-27T21:57:51.451Z,150744.53
2023-04-27T22:00:19.658Z,150745.84
2023-04-27T22:02:50.595Z,150747.13
2023-04-27T22:05:29.457Z,150769.06
2023-04-27T22:08:03.533Z,150754.84
2023-04-27T22:10:34.164Z,150745.84
2023-04-27T22:13:28.529Z,150731.63
2023-04-27T22:15:57.957Z,150743.25
2023-04-27T22:18:28.135Z,150738.09
2023-04-27T22:20:58.243Z,150719.97
2023-04-27T22:23:26.669Z,150717.41
2023-04-27T22:25:54.704Z,150723.84
2023-04-27T22:28:25.097Z,150726.44
2023-04-27T22:30:54.539Z,150734.19
2023-04-27T22:33:22.707Z,150730.31
2023-04-27T22:35:50.789Z,150725.16
2023-04-27T22:38:30.831Z,150709.63
2023-04-27T22:41:09.366Z,150677.38
2023-04-27T22:43:42.536Z,150705.75
2023-04-27T22:46:12.735Z,150689.00
2023-04-27T22:48:41.866Z,150657.97
2023-04-27T22:51:13.169Z,150667.03
2023-04-27T22:53:42.677Z,150672.19
2023-04-27T22:56:10.781Z,150670.91
2023-04-27T22:58:40.289Z,150668.31
2023-04-27T23:01:12.218Z,150652.81
2023-04-27T23:03:47.862Z,150663.16
2023-04-27T23:06:29.159Z,150660.56
2023-04-27T23:09:00.304Z,150629.59
2023-04-27T23:11:29.111Z,150642.47
2023-04-27T23:13:57.480Z,150642.47
2023-04-27T23:16:27.519Z,150646.34
2023-04-27T23:18:57.836Z,150637.34
2023-04-27T23:21:29.468Z,150619.25
2023-04-27T23:24:01.552Z,150610.22
2023-04-27T23:26:31.098Z,150619.25
2023-04-27T23:28:59.098Z,150586.94
2023-04-27T23:31:32.115Z,150615.38
2023-04-27T23:34:00.187Z,150601.16
2023-04-27T23:36:30.784Z,150589.53
2023-04-27T23:39:00.140Z,150588.25
2023-04-27T23:41:28.783Z,150561.16
2023-04-27T23:43:58.132Z,150562.44
2023-04-27T23:46:26.436Z,150580.53
2023-04-27T23:48:54.575Z,150570.19
2023-04-27T23:51:25.493Z,150570.19
2023-04-27T23:53:53.942Z,150577.97
2023-04-27T23:56:24.816Z,150585.66
2023-04-27T23:58:53.081Z,150559.88
